createdAt,value
2023-09-02T00:02:10.454Z,100584.44
2023-09-02T00:07:20.576Z,100585.97
2023-09-02T00:12:25.767Z,100608.34
2023-09-02T00:17:31.157Z,100591.00
2023-09-02T00:22:36.709Z,100586.69
2023-09-02T00:27:43.033Z,100597.50
2023-09-02T00:32:48.105Z,100592.63
2023-09-02T00:37:54.765Z,100592.91
2023-09-02T00:43:02.843Z,100605.75
2023-09-02T00:48:08.827Z,100607.44
2023-09-02T00:53:13.849Z,100623.22
2023-09-02T00:58:21.706Z,100631.31
2023-09-02T01:03:26.968Z,100628.88
2023-09-02T01:08:37.348Z,100638.63
2023-09-02T01:13:46.143Z,100611.91
2023-09-02T01:18:51.028Z,100610.72
2023-09-02T01:24:12.403Z,100610.59
2023-09-02T01:29:23.175Z,100608.59
2023-09-02T01:34:31.113Z,100619.00
2023-09-02T01:39:36.883Z,100609.50
2023-09-02T01:44:43.681Z,100603.97
2023-09-02T01:49:49.884Z,100624.31
2023-09-02T01:55:05.774Z,100596.41
2023-09-02T02:00:12.060Z,100605.22
2023-09-02T02:05:20.938Z,100593.47
2023-09-02T02:10:28.802Z,100598.69
2023-09-02T02:15:33.218Z,100596.94
2023-09-02T02:21:16.868Z,100597.59
2023-09-02T02:26:23.111Z,100587.97
2023-09-02T02:31:27.943Z,100590.97
2023-09-02T02:36:37.728Z,100591.31
2023-09-02T02:41:43.040Z,100582.06
2023-09-02T02:46:49.335Z,100571.13
2023-09-02T02:51:54.118Z,100570.16
2023-09-02T02:56:59.062Z,100565.66
2023-09-02T03:02:04.054Z,100574.31
2023-09-02T03:07:08.948Z,100568.47
2023-09-02T03:12:14.142Z,100560.44
2023-09-02T03:17:23.080Z,100575.06
2023-09-02T03:22:31.178Z,100556.50
2023-09-02T03:27:42.667Z,100561.41
2023-09-02T03:32:48.638Z,100556.50
2023-09-02T03:37:54.330Z,100565.09
2023-09-02T03:42:59.808Z,100542.34
2023-09-02T03:48:05.666Z,100558.22
2023-09-02T03:53:11.325Z,100537.44
2023-09-02T03:58:20.408Z,100530.19
2023-09-02T04:03:26.889Z,100541.78
2023-09-02T04:08:41.617Z,100554.19
2023-09-02T04:13:47.071Z,100520.75
2023-09-02T04:18:54.683Z,100520.03
2023-09-02T04:24:00.419Z,100512.81
2023-09-02T04:29:06.440Z,100511.78
2023-09-02T04:34:12.604Z,100512.44
2023-09-02T04:39:19.147Z,100488.72
2023-09-02T04:44:25.685Z,100496.81
2023-09-02T04:49:31.093Z,100484.34
2023-09-02T04:54:38.459Z,100493.03
2023-09-02T04:59:44.591Z,100466.56
2023-09-02T05:04:53.370Z,100456.66
2023-09-02T05:10:00.755Z,100447.28
2023-09-02T05:15:12.718Z,100463.31
2023-09-02T05:20:18.778Z,100430.69
2023-09-02T05:25:34.752Z,100439.91
2023-09-02T05:30:41.473Z,100429.44
2023-09-02T05:35:47.846Z,100405.44
2023-09-02T05:40:54.801Z,100413.28
2023-09-02T05:46:05.776Z,100403.84
2023-09-02T05:51:12.566Z,100412.50
2023-09-02T05:56:18.338Z,100384.47
2023-09-02T06:01:25.742Z,100379.59
2023-09-02T06:06:33.115Z,100376.34
2023-09-02T06:11:39.972Z,100382.25
2023-09-02T06:16:46.258Z,100371.44
2023-09-02T06:21:53.193Z,100354.69
2023-09-02T06:27:05.666Z,100361.72
2023-09-02T06:32:14.608Z,100342.22
2023-09-02T06:37:20.258Z,100324.94
2023-09-02T06:42:30.087Z,100345.56
2023-09-02T06:47:38.938Z,100325.38
2023-09-02T06:52:46.077Z,100310.50
2023-09-02T06:57:52.167Z,100326.19
2023-09-02T07:02:58.432Z,100297.53
2023-09-02T07:08:06.422Z,100325.44
2023-09-02T07:13:12.443Z,100299.22
2023-09-02T07:18:18.199Z,100297.84
2023-09-02T07:23:24.197Z,100309.44
2023-09-02T07:28:30.851Z,100312.91
2023-09-02T07:33:36.633Z,100312.63
2023-09-02T07:38:48.721Z,100304.47
2023-09-02T07:43:56.246Z,100299.00
2023-09-02T07:49:03.751Z,100291.69
2023-09-02T07:54:10.687Z,100298.41
2023-09-02T07:59:16.672Z,100285.16
2023-09-02T08:04:22.629Z,100280.28
2023-09-02T08:09:28.234Z,100264.63
2023-09-02T08:14:37.173Z,100292.47
2023-09-02T08:19:43.623Z,100281.41
2023-09-02T08:24:51.737Z,100269.22
2023-09-02T08:30:02.795Z,100247.59
2023-09-02T08:35:09.500Z,100261.13
2023-09-02T08:40:18.065Z,100248.66
2023-09-02T08:45:28.184Z,100240.00
2023-09-02T08:50:34.257Z,100248.13
2023-09-02T08:55:44.247Z,100257.28
2023-09-02T09:00:51.885Z,100270.81
2023-09-02T09:06:05.022Z,100286.22
2023-09-02T09:11:16.145Z,100252.09
2023-09-02T09:16:35.821Z,100243.19
2023-09-02T09:21:42.236Z,100238.03
2023-09-02T09:26:49.263Z,100239.13
2023-09-02T09:32:13.911Z,100233.16
2023-09-02T09:37:19.632Z,100233.94
2023-09-02T09:42:38.735Z,100233.41
2023-09-02T09:47:46.851Z,100234.41
2023-09-02T09:53:05.099Z,100228.41
2023-09-02T09:58:11.141Z,100248.63
2023-09-02T10:03:18.000Z,100223.44
2023-09-02T10:08:24.138Z,100206.13
2023-09-02T10:13:30.431Z,100232.25
2023-09-02T10:18:36.000Z,100228.16
2023-09-02T10:23:46.670Z,100204.00
2023-09-02T10:28:55.114Z,100214.66
2023-09-02T10:34:24.180Z,100283.91
2023-09-02T10:39:53.727Z,100286.47
2023-09-02T10:45:00.445Z,100158.88
2023-09-02T10:50:07.221Z,100207.22
2023-09-02T10:55:15.575Z,100197.63
2023-09-02T11:00:30.385Z,100164.91
2023-09-02T11:06:08.098Z,100151.66
2023-09-02T11:11:16.001Z,100155.28
2023-09-02T11:16:21.688Z,100169.25
2023-09-02T11:21:53.270Z,100172.16
2023-09-02T11:27:01.568Z,100181.03
2023-09-02T11:32:08.606Z,100199.03
2023-09-02T11:37:15.651Z,100217.63
2023-09-02T11:42:21.234Z,100293.72
2023-09-02T11:47:25.799Z,100310.66
2023-09-02T11:52:31.669Z,100331.59
2023-09-02T11:57:36.789Z,100352.84
2023-09-02T12:02:45.575Z,100388.03
2023-09-02T12:07:53.602Z,100370.53
2023-09-02T12:13:07.373Z,100373.66
2023-09-02T12:18:16.869Z,100410.47
2023-09-02T12:23:23.880Z,100427.44
2023-09-02T12:28:33.385Z,100401.22
2023-09-02T12:33:41.030Z,100403.06
2023-09-02T12:38:58.389Z,100378.53
2023-09-02T12:44:18.354Z,100373.84
2023-09-02T12:49:25.132Z,100360.06
2023-09-02T12:54:35.577Z,100360.06
2023-09-02T12:59:42.410Z,100363.81
2023-09-02T13:04:52.963Z,100372.91
2023-09-02T13:09:58.375Z,100346.25
2023-09-02T13:15:11.034Z,100343.56
2023-09-02T13:20:20.121Z,100335.75
2023-09-02T13:25:25.945Z,100321.72
2023-09-02T13:30:34.266Z,100361.22
2023-09-02T13:35:40.012Z,100354.41
2023-09-02T13:40:45.484Z,100389.56
2023-09-02T13:45:53.593Z,100340.63
2023-09-02T13:51:03.971Z,100348.31
2023-09-02T13:56:20.139Z,100333.03
2023-09-02T14:01:34.426Z,100328.69
2023-09-02T14:06:43.229Z,100340.03
2023-09-02T14:12:04.244Z,100347.50
2023-09-02T14:17:12.056Z,100340.72
2023-09-02T14:22:28.775Z,100335.34
2023-09-02T14:27:39.776Z,100371.19
2023-09-02T14:32:47.117Z,100339.16
2023-09-02T14:37:52.571Z,100350.53
2023-09-02T14:43:02.164Z,100316.44
2023-09-02T14:48:09.501Z,100319.13
2023-09-02T14:53:17.722Z,100311.88
2023-09-02T14:58:30.331Z,100322.03
2023-09-02T15:03:42.955Z,100326.22
2023-09-02T15:08:50.726Z,100316.75
2023-09-02T15:13:58.731Z,100262.00
2023-09-02T15:19:07.113Z,100281.03
2023-09-02T15:24:13.614Z,100312.66
2023-09-02T15:29:29.698Z,100307.53
2023-09-02T15:34:35.700Z,100318.50
2023-09-02T15:39:47.901Z,100313.13
2023-09-02T15:57:34.048Z,100359.94
2023-09-02T16:02:43.889Z,100336.22
2023-09-02T16:08:07.036Z,100307.25
2023-09-02T16:13:26.456Z,100303.41
2023-09-02T16:18:36.585Z,100304.22
2023-09-02T16:23:43.280Z,100313.53
2023-09-02T16:28:52.945Z,100314.00
2023-09-02T16:34:04.937Z,100298.13
2023-09-02T16:39:16.628Z,100306.41
2023-09-02T16:44:23.473Z,100319.25
2023-09-02T16:49:34.481Z,100329.97
2023-09-02T16:54:41.711Z,100306.19
2023-09-02T16:59:48.646Z,100301.41
2023-09-02T17:04:54.533Z,100312.94
2023-09-02T17:10:01.790Z,100355.09
2023-09-02T17:15:09.082Z,100283.63
2023-09-02T17:20:28.414Z,100299.28
2023-09-02T17:25:51.364Z,100302.78
2023-09-02T17:31:14.850Z,100289.63
2023-09-02T17:36:21.200Z,100288.56
2023-09-02T17:41:30.807Z,100307.56
2023-09-02T17:46:41.018Z,100288.19
2023-09-02T17:51:52.293Z,100264.25
2023-09-02T17:56:57.512Z,100301.25
2023-09-02T18:02:06.356Z,100259.13
2023-09-02T18:07:16.442Z,100272.53
2023-09-02T18:12:22.389Z,100289.50
2023-09-02T18:17:29.232Z,100278.97
2023-09-02T18:22:40.222Z,100271.97
2023-09-02T18:27:47.039Z,100300.75
2023-09-02T18:32:53.375Z,100271.00
2023-09-02T18:37:58.613Z,100224.34
2023-09-02T18:43:22.870Z,100190.28
2023-09-02T18:48:32.598Z,100191.31
2023-09-02T18:53:48.709Z,100158.50
2023-09-02T18:59:18.751Z,100105.91
2023-09-02T19:04:28.646Z,100116.53
2023-09-02T19:09:33.543Z,100150.69
2023-09-02T19:14:38.717Z,100156.28
2023-09-02T19:19:51.360Z,100162.47
2023-09-02T19:24:58.730Z,100191.97
2023-09-02T19:30:19.061Z,100195.81
2023-09-02T19:35:52.675Z,100164.22
2023-09-02T19:40:58.967Z,100176.59
2023-09-02T19:46:11.703Z,100224.09
2023-09-02T19:51:17.450Z,100214.16
2023-09-02T19:56:22.959Z,100177.19
2023-09-02T20:01:31.832Z,100183.59
2023-09-02T20:06:36.756Z,100188.97
2023-09-02T20:11:41.777Z,100196.53
2023-09-02T20:16:47.410Z,100178.38
2023-09-02T20:21:53.196Z,100169.47
2023-09-02T20:26:58.907Z,100150.69
2023-09-02T20:32:04.173Z,100164.09
2023-09-02T20:37:09.556Z,100147.19
2023-09-02T20:42:16.315Z,100143.72
2023-09-02T20:47:21.137Z,100158.16
2023-09-02T20:52:27.350Z,100188.50
2023-09-02T20:57:34.448Z,100162.72
2023-09-02T21:02:39.641Z,100144.38
2023-09-02T21:07:45.162Z,100146.84
2023-09-02T21:12:50.399Z,100171.22
2023-09-02T21:17:57.118Z,100162.81
2023-09-02T21:23:03.816Z,100162.81
2023-09-02T21:28:09.697Z,100171.31
2023-09-02T21:33:15.231Z,100200.25
2023-09-02T21:38:21.489Z,100204.22
2023-09-02T21:43:26.826Z,100198.50
2023-09-02T21:48:32.028Z,100224.63
2023-09-02T21:53:42.483Z,100268.84
2023-09-02T21:58:47.615Z,100249.88
2023-09-02T22:03:52.463Z,100285.00
2023-09-02T22:08:58.242Z,100263.53
2023-09-02T22:14:03.179Z,100266.44
2023-09-02T22:19:11.793Z,100271.81
2023-09-02T22:24:18.184Z,100275.50
2023-09-02T22:29:23.452Z,100276.13
2023-09-02T22:34:28.865Z,100282.09
2023-09-02T22:39:33.843Z,100303.13
2023-09-02T22:44:38.778Z,100294.38
2023-09-02T22:49:43.827Z,100300.97
2023-09-02T22:54:48.417Z,100302.34
2023-09-02T22:59:56.701Z,100310.78
2023-09-02T23:05:03.952Z,100309.25
2023-09-02T23:10:11.303Z,100310.47
2023-09-02T23:15:16.988Z,100320.72
2023-09-02T23:20:23.446Z,100320.50
2023-09-02T23:25:28.797Z,100318.41
2023-09-02T23:30:35.957Z,100315.75
2023-09-02T23:35:41.843Z,100327.59
2023-09-02T23:40:49.113Z,100317.09
2023-09-02T23:45:55.555Z,100341.41
2023-09-02T23:51:01.318Z,100327.31
2023-09-02T23:56:06.652Z,100301.16
